createdAt,value
2022-12-25T00:00:21.151Z,9.43
2022-12-25T00:03:23.164Z,7.90
2022-12-25T00:06:24.920Z,7.85
2022-12-25T00:09:26.629Z,6.35
2022-12-25T00:12:28.311Z,8.52
2022-12-25T00:15:29.990Z,7.20
2022-12-25T00:18:31.620Z,9.17
2022-12-25T00:21:33.371Z,9.98
2022-12-25T00:24:35.112Z,8.15
2022-12-25T00:27:37.949Z,6.20
2022-12-25T00:30:41.014Z,8.50
2022-12-25T00:33:45.052Z,6.37
2022-12-25T00:36:46.671Z,4.88
2022-12-25T00:39:49.502Z,10.85
2022-12-25T00:42:51.308Z,9.00
2022-12-25T00:46:02.156Z,11.33
2022-12-25T00:49:03.985Z,4.93
2022-12-25T00:52:05.817Z,8.02
2022-12-25T00:55:07.728Z,11.45
2022-12-25T00:58:09.388Z,7.03
2022-12-25T01:01:11.901Z,10.10
2022-12-25T01:04:13.787Z,11.07
2022-12-25T01:07:16.957Z,5.95
2022-12-25T01:10:24.397Z,7.15
2022-12-25T01:13:27.488Z,6.40
2022-12-25T01:16:29.885Z,7.30
2022-12-25T01:19:31.653Z,7.30
2022-12-25T01:22:33.335Z,11.18
2022-12-25T01:25:35.055Z,12.95
2022-12-25T01:28:37.595Z,6.43
2022-12-25T01:31:39.300Z,6.90
2022-12-25T01:34:41.198Z,5.93
2022-12-25T01:37:42.897Z,9.30
2022-12-25T01:40:44.668Z,6.13
2022-12-25T01:44:04.720Z,7.60
2022-12-25T01:47:07.376Z,9.43
2022-12-25T01:50:09.509Z,4.77
2022-12-25T01:53:11.943Z,7.60
2022-12-25T01:56:13.679Z,5.78
2022-12-25T01:59:19.314Z,7.93
2022-12-25T02:02:21.453Z,9.77
2022-12-25T02:05:27.991Z,7.30
2022-12-25T02:08:30.387Z,8.90
2022-12-25T02:11:50.282Z,9.23
2022-12-25T02:14:59.648Z,11.20
2022-12-25T02:18:15.870Z,8.37
2022-12-25T02:21:29.817Z,8.13
2022-12-25T02:25:08.818Z,6.90
2022-12-25T02:28:36.437Z,7.10
2022-12-25T02:31:48.277Z,8.13
2022-12-25T02:35:03.693Z,7.10
2022-12-25T02:38:12.904Z,7.97
2022-12-25T02:41:16.562Z,8.02
2022-12-25T02:44:39.627Z,6.00
2022-12-25T02:47:59.859Z,4.32
2022-12-25T02:51:22.581Z,6.73
2022-12-25T02:54:52.358Z,7.67
2022-12-25T02:58:16.587Z,5.90
2022-12-25T03:01:39.386Z,7.85
2022-12-25T03:05:01.902Z,6.60
2022-12-25T03:08:08.733Z,8.27
2022-12-25T03:11:31.070Z,6.10
2022-12-25T03:14:51.526Z,6.32
2022-12-25T03:17:53.771Z,7.90
2022-12-25T03:21:14.584Z,7.85
2022-12-25T03:24:34.762Z,5.87
2022-12-25T03:27:37.742Z,6.27
2022-12-25T03:31:13.400Z,8.60
2022-12-25T03:34:49.612Z,10.48
2022-12-25T03:38:09.988Z,9.45
2022-12-25T03:41:59.507Z,6.17
2022-12-25T03:45:30.845Z,8.63
2022-12-25T03:48:54.239Z,6.13
2022-12-25T03:52:17.731Z,5.35
2022-12-25T03:55:38.640Z,10.30
2022-12-25T03:59:09.423Z,8.57
2022-12-25T04:02:29.846Z,8.33
2022-12-25T04:05:50.461Z,8.38
2022-12-25T04:09:10.854Z,12.60
2022-12-25T04:12:31.106Z,8.18
2022-12-25T04:15:51.395Z,5.57
2022-12-25T04:19:11.613Z,9.40
2022-12-25T04:22:31.915Z,6.78
2022-12-25T04:25:52.195Z,7.45
2022-12-25T04:29:12.555Z,9.23
2022-12-25T04:32:32.739Z,8.47
2022-12-25T04:35:53.012Z,5.90
2022-12-25T04:38:54.826Z,6.63
2022-12-25T04:41:56.783Z,9.57
2022-12-25T04:44:58.468Z,9.23
2022-12-25T04:48:00.809Z,9.17
2022-12-25T04:51:20.841Z,8.80
2022-12-25T04:54:22.560Z,6.97
2022-12-25T04:57:24.232Z,7.90
2022-12-25T05:00:25.955Z,8.88
2022-12-25T05:03:28.289Z,10.00
2022-12-25T05:06:30.102Z,9.20
2022-12-25T05:09:31.776Z,10.90
2022-12-25T05:12:33.524Z,11.05
2022-12-25T05:15:35.201Z,11.68
2022-12-25T05:18:36.922Z,9.93
2022-12-25T05:21:38.605Z,13.20
2022-12-25T05:24:40.337Z,13.55
2022-12-25T05:27:41.984Z,17.52
2022-12-25T05:30:43.717Z,16.00
2022-12-25T05:33:45.668Z,8.77
2022-12-25T05:36:47.328Z,14.87
2022-12-25T05:39:49.258Z,16.30
2022-12-25T05:42:54.000Z,13.40
2022-12-25T05:45:55.687Z,11.55
2022-12-25T05:48:57.377Z,13.60
2022-12-25T05:51:59.016Z,8.83
2022-12-25T05:55:00.849Z,9.55
2022-12-25T05:58:02.997Z,9.60
2022-12-25T06:01:14.807Z,11.52
2022-12-25T06:04:16.711Z,11.67
2022-12-25T06:07:18.471Z,15.83
2022-12-25T06:10:20.402Z,12.15
2022-12-25T06:13:22.068Z,15.45
2022-12-25T06:16:23.743Z,16.85
2022-12-25T06:19:25.492Z,15.90
2022-12-25T06:22:31.489Z,14.00
2022-12-25T06:25:33.396Z,8.68
2022-12-25T06:28:35.401Z,9.20
2022-12-25T06:31:37.110Z,10.02
2022-12-25T06:34:38.787Z,13.40
2022-12-25T06:37:40.410Z,28.87
2022-12-25T06:40:42.091Z,38.80
2022-12-25T06:43:47.494Z,21.95
2022-12-25T06:46:49.229Z,20.63
2022-12-25T06:49:50.848Z,23.47
2022-12-25T06:52:52.467Z,20.83
2022-12-25T06:55:54.107Z,35.38
2022-12-25T06:58:58.540Z,22.08
2022-12-25T07:02:00.422Z,10.88
2022-12-25T07:05:04.009Z,12.20
2022-12-25T07:08:05.743Z,10.87
2022-12-25T07:11:07.859Z,14.68
2022-12-25T07:14:23.256Z,12.57
2022-12-25T07:17:25.679Z,13.95
2022-12-25T07:20:27.615Z,14.03
2022-12-25T07:23:29.309Z,15.00
2022-12-25T07:26:31.236Z,16.05
2022-12-25T07:29:32.896Z,8.32
2022-12-25T07:32:34.557Z,10.60
2022-12-25T07:35:37.191Z,11.17
2022-12-25T07:38:38.908Z,18.03
2022-12-25T07:41:40.617Z,15.02
2022-12-25T07:44:42.354Z,12.90
2022-12-25T07:47:44.437Z,11.48
2022-12-25T07:50:46.125Z,15.80
2022-12-25T07:53:47.952Z,20.77
2022-12-25T07:56:53.386Z,25.30
2022-12-25T07:59:55.712Z,31.17
2022-12-25T08:02:57.449Z,31.73
2022-12-25T08:06:06.082Z,33.60
2022-12-25T08:09:11.191Z,69.33
2022-12-25T08:12:13.129Z,41.38
2022-12-25T08:15:14.940Z,37.22
2022-12-25T08:18:16.638Z,27.73
2022-12-25T08:21:18.265Z,41.50
2022-12-25T08:24:20.049Z,27.77
2022-12-25T08:27:21.744Z,11.52
2022-12-25T08:30:23.418Z,10.90
2022-12-25T08:33:25.428Z,10.20
2022-12-25T08:36:27.504Z,9.27
2022-12-25T08:39:29.264Z,10.17
2022-12-25T08:42:30.973Z,19.45
2022-12-25T08:45:35.253Z,59.05
2022-12-25T08:48:37.639Z,60.20
2022-12-25T08:51:39.349Z,70.40
2022-12-25T08:54:41.073Z,50.57
2022-12-25T08:57:43.023Z,28.73
2022-12-25T09:00:44.665Z,20.40
2022-12-25T09:03:46.561Z,16.10
2022-12-25T09:06:48.396Z,17.83
2022-12-25T09:09:50.053Z,16.20
2022-12-25T09:12:51.857Z,15.95
2022-12-25T09:15:53.545Z,12.88
2022-12-25T09:18:56.831Z,16.95
2022-12-25T09:21:58.663Z,27.50
2022-12-25T09:25:00.498Z,14.77
2022-12-25T09:28:02.199Z,18.95
2022-12-25T09:31:04.415Z,15.38
2022-12-25T09:34:06.483Z,11.73
2022-12-25T09:37:08.133Z,12.33
2022-12-25T09:40:18.673Z,16.87
2022-12-25T09:43:21.705Z,9.25
2022-12-25T09:46:33.078Z,12.75
2022-12-25T09:49:54.316Z,13.90
2022-12-25T09:53:03.105Z,10.20
2022-12-25T09:56:11.465Z,15.07
2022-12-25T09:59:24.197Z,17.35
2022-12-25T10:02:41.122Z,9.00
2022-12-25T10:06:20.762Z,14.48
2022-12-25T10:09:44.225Z,8.90
2022-12-25T10:13:03.998Z,14.80
2022-12-25T10:16:21.507Z,8.20
2022-12-25T10:19:28.142Z,8.02
2022-12-25T10:22:29.766Z,8.43
2022-12-25T10:25:32.492Z,45.77
2022-12-25T10:28:42.781Z,10.13
2022-12-25T10:31:46.682Z,9.27
2022-12-25T10:34:48.929Z,10.93
2022-12-25T10:38:17.809Z,10.00
2022-12-25T10:41:53.442Z,10.17
2022-12-25T10:44:59.299Z,5.50
2022-12-25T10:48:07.767Z,4.78
2022-12-25T10:51:09.984Z,9.10
2022-12-25T10:54:21.404Z,7.90
2022-12-25T10:57:25.455Z,6.47
2022-12-25T11:00:30.263Z,5.40
2022-12-25T11:03:35.155Z,5.68
2022-12-25T11:06:36.963Z,7.40
2022-12-25T11:09:39.700Z,5.93
2022-12-25T11:12:44.724Z,5.23
2022-12-25T11:15:49.239Z,5.07
2022-12-25T11:18:54.213Z,4.90
2022-12-25T11:21:58.421Z,5.68
2022-12-25T11:25:12.382Z,6.32
2022-12-25T11:28:14.176Z,8.87
2022-12-25T11:31:43.303Z,6.80
2022-12-25T11:34:47.508Z,4.75
2022-12-25T11:37:51.974Z,4.75
2022-12-25T11:41:00.606Z,6.95
2022-12-25T11:44:08.106Z,5.30
2022-12-25T11:47:29.236Z,3.40
2022-12-25T11:50:35.514Z,5.88
2022-12-25T11:53:51.679Z,9.93
2022-12-25T11:56:55.904Z,6.35
2022-12-25T12:00:04.283Z,9.53
2022-12-25T12:03:12.061Z,8.10
2022-12-25T12:06:23.223Z,5.53
2022-12-25T12:09:36.708Z,6.68
2022-12-25T12:12:51.202Z,8.82
2022-12-25T12:15:53.005Z,11.83
2022-12-25T12:18:55.998Z,11.97
2022-12-25T12:22:01.125Z,12.95
2022-12-25T12:25:06.782Z,11.77
2022-12-25T12:28:26.545Z,9.77
2022-12-25T12:31:42.819Z,15.63
2022-12-25T12:34:50.122Z,10.67
2022-12-25T12:38:02.785Z,9.43
2022-12-25T12:41:07.210Z,6.35
2022-12-25T12:44:12.441Z,8.52
2022-12-25T12:47:48.135Z,8.17
2022-12-25T12:50:49.812Z,6.37
2022-12-25T12:53:51.590Z,8.63
2022-12-25T12:57:06.228Z,7.70
2022-12-25T13:00:17.996Z,6.43
2022-12-25T13:03:40.838Z,8.00
2022-12-25T13:06:54.283Z,5.88
2022-12-25T13:09:58.677Z,7.70
2022-12-25T13:13:05.029Z,8.00
2022-12-25T13:16:13.040Z,9.00
2022-12-25T13:19:19.427Z,8.68
2022-12-25T13:22:30.109Z,7.00
2022-12-25T13:25:32.018Z,6.80
2022-12-25T13:28:36.265Z,9.88
2022-12-25T13:31:41.116Z,9.20
2022-12-25T13:34:43.144Z,9.27
2022-12-25T13:37:45.506Z,7.60
2022-12-25T13:41:11.400Z,7.70
2022-12-25T13:44:29.964Z,5.78
2022-12-25T13:47:34.134Z,8.53
2022-12-25T13:50:36.310Z,6.72
2022-12-25T13:53:37.936Z,7.68
2022-12-25T13:56:51.741Z,10.18
2022-12-25T13:59:53.887Z,10.75
2022-12-25T14:02:55.721Z,9.63
2022-12-25T14:05:59.969Z,10.35
2022-12-25T14:09:02.069Z,10.65
2022-12-25T14:12:04.113Z,13.52
2022-12-25T14:15:06.877Z,12.38
2022-12-25T14:18:15.243Z,15.33
2022-12-25T14:21:34.937Z,10.95
2022-12-25T14:24:38.132Z,10.23
2022-12-25T14:27:39.879Z,12.02
2022-12-25T14:30:42.734Z,14.60
2022-12-25T14:33:45.709Z,11.17
2022-12-25T14:36:48.376Z,14.07
2022-12-25T14:39:59.898Z,15.73
2022-12-25T14:43:06.551Z,13.85
2022-12-25T14:46:08.987Z,14.70
2022-12-25T14:49:25.010Z,14.20
2022-12-25T14:52:52.822Z,12.90
2022-12-25T14:55:55.258Z,16.17
2022-12-25T14:58:59.680Z,16.20
2022-12-25T15:02:01.601Z,16.23
2022-12-25T15:05:03.577Z,15.47
2022-12-25T15:08:25.527Z,11.95
2022-12-25T15:11:28.281Z,8.85
2022-12-25T15:14:31.485Z,12.02
2022-12-25T15:17:36.184Z,11.27
2022-12-25T15:20:37.914Z,11.23
2022-12-25T15:23:39.691Z,31.88
2022-12-25T15:26:41.943Z,26.83
2022-12-25T15:30:09.097Z,36.00
2022-12-25T15:33:17.046Z,38.03
2022-12-25T15:36:18.923Z,46.20
2022-12-25T15:39:20.563Z,24.40
2022-12-25T15:42:25.276Z,24.05
2022-12-25T15:45:29.173Z,16.17
2022-12-25T15:48:30.853Z,16.60
2022-12-25T15:51:33.356Z,16.17
2022-12-25T15:54:35.416Z,17.85
2022-12-25T15:57:39.191Z,22.60
2022-12-25T16:00:40.860Z,19.27
2022-12-25T16:03:43.321Z,20.65
2022-12-25T16:06:45.484Z,26.83
2022-12-25T16:09:47.428Z,39.95
2022-12-25T16:12:49.100Z,37.85
2022-12-25T16:15:50.767Z,29.65
2022-12-25T16:18:52.468Z,49.10
2022-12-25T16:21:54.493Z,80.47
2022-12-25T16:24:57.044Z,71.72
2022-12-25T16:27:58.769Z,57.40
2022-12-25T16:31:00.705Z,39.38
2022-12-25T16:34:03.112Z,24.13
2022-12-25T16:37:05.374Z,36.40
2022-12-25T16:40:09.606Z,41.08
2022-12-25T16:43:11.361Z,49.67
2022-12-25T16:46:15.644Z,37.30
2022-12-25T16:49:17.320Z,34.75
2022-12-25T16:52:18.971Z,35.43
2022-12-25T16:55:26.319Z,36.83
2022-12-25T16:58:31.782Z,49.53
2022-12-25T17:01:33.645Z,63.55
2022-12-25T17:04:35.466Z,59.65
2022-12-25T17:07:37.666Z,54.80
2022-12-25T17:10:39.431Z,51.30
2022-12-25T17:13:41.153Z,55.05
2022-12-25T17:16:42.868Z,46.03
2022-12-25T17:19:44.613Z,48.17
2022-12-25T17:22:48.899Z,41.27
2022-12-25T17:25:50.599Z,39.53
2022-12-25T17:28:56.236Z,32.13
2022-12-25T17:31:58.000Z,31.77
2022-12-25T17:34:59.707Z,34.67
2022-12-25T17:38:01.367Z,31.50
2022-12-25T17:41:06.291Z,30.38
2022-12-25T17:44:11.913Z,29.90
2022-12-25T17:47:13.563Z,26.55
2022-12-25T17:50:15.309Z,30.52
2022-12-25T17:53:17.008Z,35.13
2022-12-25T17:56:19.817Z,32.90
2022-12-25T17:59:28.273Z,41.80
2022-12-25T18:02:30.894Z,34.92
2022-12-25T18:05:36.287Z,35.47
2022-12-25T18:08:39.860Z,36.37
2022-12-25T18:11:43.338Z,33.22
2022-12-25T18:14:45.044Z,33.60
2022-12-25T18:17:46.738Z,36.38
2022-12-25T18:20:48.416Z,34.78
2022-12-25T18:23:50.826Z,34.27
2022-12-25T18:26:52.594Z,34.67
2022-12-25T18:29:54.294Z,33.72
2022-12-25T18:32:55.989Z,41.17
2022-12-25T18:35:59.624Z,37.95
2022-12-25T18:39:03.241Z,34.90
2022-12-25T18:42:23.683Z,38.58
2022-12-25T18:45:25.449Z,38.33
2022-12-25T18:48:27.425Z,33.58
2022-12-25T18:51:34.960Z,30.40
2022-12-25T18:54:38.657Z,31.97
2022-12-25T18:57:40.896Z,27.55
2022-12-25T19:00:42.565Z,33.95
2022-12-25T19:03:45.794Z,36.17
2022-12-25T19:06:49.252Z,36.50
2022-12-25T19:09:52.199Z,30.40
2022-12-25T19:12:54.036Z,29.95
2022-12-25T19:15:58.945Z,33.17
2022-12-25T19:19:01.415Z,33.53
2022-12-25T19:22:03.241Z,30.38
2022-12-25T19:25:05.464Z,38.23
2022-12-25T19:28:07.136Z,35.25
2022-12-25T19:31:09.755Z,31.33
2022-12-25T19:34:11.708Z,36.10
2022-12-25T19:37:15.041Z,28.90
2022-12-25T19:40:16.923Z,34.73
2022-12-25T19:43:19.025Z,37.55
2022-12-25T19:46:26.029Z,35.20
2022-12-25T19:49:28.025Z,32.08
2022-12-25T19:52:29.716Z,36.05
2022-12-25T19:55:32.304Z,36.50
2022-12-25T19:58:34.065Z,33.53
2022-12-25T20:01:35.858Z,36.30
2022-12-25T20:04:37.634Z,37.88
2022-12-25T20:07:39.390Z,41.42
2022-12-25T20:10:44.706Z,33.40
2022-12-25T20:13:46.500Z,37.08
2022-12-25T20:16:48.360Z,36.03
2022-12-25T20:19:50.067Z,38.30
2022-12-25T20:22:51.888Z,35.60
2022-12-25T20:25:54.069Z,38.70
2022-12-25T20:28:56.570Z,34.13
2022-12-25T20:31:58.306Z,33.00
2022-12-25T20:35:00.108Z,33.15
2022-12-25T20:38:02.066Z,33.03
2022-12-25T20:44:28.900Z,33.45
2022-12-25T20:47:30.622Z,38.72
2022-12-25T20:50:32.330Z,34.97
2022-12-25T20:53:34.625Z,34.92
2022-12-25T20:56:37.712Z,36.60
2022-12-25T20:59:40.233Z,38.70
2022-12-25T21:02:43.201Z,36.17
2022-12-25T21:05:54.872Z,37.25
2022-12-25T21:08:56.889Z,38.15
2022-12-25T21:11:58.659Z,37.27
2022-12-25T21:15:00.746Z,36.28
2022-12-25T21:18:03.725Z,35.33
2022-12-25T21:21:07.453Z,39.35
2022-12-25T21:24:10.148Z,36.15
2022-12-25T21:27:12.551Z,36.43
2022-12-25T21:30:16.001Z,38.17
2022-12-25T21:33:36.270Z,36.75
2022-12-25T21:36:37.956Z,39.35
2022-12-25T21:39:39.717Z,37.83
2022-12-25T21:42:41.392Z,41.53
2022-12-25T21:45:43.144Z,32.85
2022-12-25T21:48:44.959Z,45.60
2022-12-25T21:52:05.262Z,38.10
2022-12-25T21:55:07.399Z,44.63
2022-12-25T21:58:09.061Z,39.30
2022-12-25T22:01:11.664Z,36.03
2022-12-25T22:04:15.492Z,36.97
2022-12-25T22:07:17.333Z,36.13
2022-12-25T22:10:19.059Z,39.17
2022-12-25T22:13:39.272Z,39.13
2022-12-25T22:17:00.006Z,39.90
2022-12-25T22:20:01.893Z,40.58
2022-12-25T22:23:08.078Z,35.00
2022-12-25T22:26:09.794Z,39.40
2022-12-25T22:29:11.488Z,37.20
2022-12-25T22:32:14.509Z,35.88
2022-12-25T22:35:16.716Z,33.60
2022-12-25T22:38:18.410Z,29.10
2022-12-25T22:41:20.048Z,32.20
2022-12-25T22:44:23.592Z,28.33
2022-12-25T22:47:25.297Z,29.13
2022-12-25T22:50:26.955Z,28.48
2022-12-25T22:53:28.592Z,27.10
2022-12-25T22:56:30.317Z,29.20
2022-12-25T22:59:32.918Z,25.33
2022-12-25T23:02:35.280Z,28.95
2022-12-25T23:05:37.106Z,23.48
2022-12-25T23:08:39.052Z,25.58
2022-12-25T23:11:41.008Z,27.48
2022-12-25T23:14:42.692Z,31.57
2022-12-25T23:18:03.271Z,27.45
2022-12-25T23:21:23.481Z,30.40
2022-12-25T23:24:43.703Z,32.45
2022-12-25T23:27:45.967Z,28.52
2022-12-25T23:30:47.632Z,29.63
2022-12-25T23:33:49.345Z,29.67
2022-12-25T23:36:51.019Z,30.00
2022-12-25T23:39:53.026Z,26.95
2022-12-25T23:42:54.697Z,30.63
2022-12-25T23:45:56.375Z,27.27
2022-12-25T23:48:58.150Z,29.38
2022-12-25T23:52:00.104Z,31.10
2022-12-25T23:55:01.810Z,30.65
2022-12-25T23:58:03.972Z,27.27
